sensor_id;sensor_type;location;lat;lon;timestamp;pressure;altitude;pressure_sealevel;temperature
8227;BMP180;4154;48.810;9.012;2023-04-16T00:00:48;96978.00;;;7.10
8227;BMP180;4154;48.810;9.012;2023-04-16T00:03:15;96976.00;;;7.20
8227;BMP180;4154;48.810;9.012;2023-04-16T00:05:41;96976.00;;;7.00
8227;BMP180;4154;48.810;9.012;2023-04-16T00:08:07;96971.00;;;7.10
8227;BMP180;4154;48.810;9.012;2023-04-16T00:10:34;96973.00;;;7.10
8227;BMP180;4154;48.810;9.012;2023-04-16T00:13:00;96974.00;;;7.10
8227;BMP180;4154;48.810;9.012;2023-04-16T00:15:25;96977.00;;;7.10
8227;BMP180;4154;48.810;9.012;2023-04-16T00:17:51;96986.00;;;7.10
8227;BMP180;4154;48.810;9.012;2023-04-16T00:20:18;96980.00;;;7.00
8227;BMP180;4154;48.810;9.012;2023-04-16T00:22:45;96974.00;;;7.10
8227;BMP180;4154;48.810;9.012;2023-04-16T00:25:10;96979.00;;;7.10
8227;BMP180;4154;48.810;9.012;2023-04-16T00:27:36;96987.00;;;7.10
8227;BMP180;4154;48.810;9.012;2023-04-16T00:30:02;96993.00;;;7.00
8227;BMP180;4154;48.810;9.012;2023-04-16T00:32:29;96983.00;;;7.00
8227;BMP180;4154;48.810;9.012;2023-04-16T00:34:55;96980.00;;;7.00
8227;BMP180;4154;48.810;9.012;2023-04-16T00:37:21;96975.00;;;7.00
8227;BMP180;4154;48.810;9.012;2023-04-16T00:39:46;96981.00;;;7.10
8227;BMP180;4154;48.810;9.012;2023-04-16T00:42:12;96987.00;;;7.00
8227;BMP180;4154;48.810;9.012;2023-04-16T00:44:38;96979.00;;;7.10
8227;BMP180;4154;48.810;9.012;2023-04-16T00:47:04;96984.00;;;7.10
8227;BMP180;4154;48.810;9.012;2023-04-16T00:49:32;96983.00;;;7.10
8227;BMP180;4154;48.810;9.012;2023-04-16T00:51:58;96978.00;;;7.00
8227;BMP180;4154;48.810;9.012;2023-04-16T00:54:25;96988.00;;;7.10
8227;BMP180;4154;48.810;9.012;2023-04-16T00:56:51;96986.00;;;7.10
8227;BMP180;4154;48.810;9.012;2023-04-16T00:59:17;96988.00;;;7.10
8227;BMP180;4154;48.810;9.012;2023-04-16T01:01:43;96987.00;;;7.10
8227;BMP180;4154;48.810;9.012;2023-04-16T01:04:09;96984.00;;;7.10
8227;BMP180;4154;48.810;9.012;2023-04-16T01:06:35;96987.00;;;7.10
8227;BMP180;4154;48.810;9.012;2023-04-16T01:09:00;96991.00;;;7.10
8227;BMP180;4154;48.810;9.012;2023-04-16T01:11:27;96990.00;;;7.00
8227;BMP180;4154;48.810;9.012;2023-04-16T01:13:53;96981.00;;;7.10
8227;BMP180;4154;48.810;9.012;2023-04-16T01:16:18;96989.00;;;7.10
8227;BMP180;4154;48.810;9.012;2023-04-16T01:18:44;96997.00;;;7.00
8227;BMP180;4154;48.810;9.012;2023-04-16T01:21:10;96993.00;;;7.10
8227;BMP180;4154;48.810;9.012;2023-04-16T01:23:36;96989.00;;;7.00
8227;BMP180;4154;48.810;9.012;2023-04-16T01:26:02;96984.00;;;7.00
8227;BMP180;4154;48.810;9.012;2023-04-16T01:28:28;96996.00;;;7.00
8227;BMP180;4154;48.810;9.012;2023-04-16T01:30:54;96987.00;;;7.00
8227;BMP180;4154;48.810;9.012;2023-04-16T01:33:20;97004.00;;;7.20
8227;BMP180;4154;48.810;9.012;2023-04-16T01:35:46;96998.00;;;7.10
8227;BMP180;4154;48.810;9.012;2023-04-16T01:38:11;96993.00;;;7.10
8227;BMP180;4154;48.810;9.012;2023-04-16T01:40:37;96989.00;;;7.10
8227;BMP180;4154;48.810;9.012;2023-04-16T01:43:04;96993.00;;;7.10
8227;BMP180;4154;48.810;9.012;2023-04-16T01:45:34;96993.00;;;7.10
8227;BMP180;4154;48.810;9.012;2023-04-16T01:48:00;97003.00;;;7.10
8227;BMP180;4154;48.810;9.012;2023-04-16T01:50:26;96993.00;;;7.20
8227;BMP180;4154;48.810;9.012;2023-04-16T01:52:52;97005.00;;;7.10
8227;BMP180;4154;48.810;9.012;2023-04-16T01:55:18;97005.00;;;7.10
8227;BMP180;4154;48.810;9.012;2023-04-16T01:57:44;97003.00;;;7.00
8227;BMP180;4154;48.810;9.012;2023-04-16T02:00:10;96997.00;;;7.10
8227;BMP180;4154;48.810;9.012;2023-04-16T02:02:36;97002.00;;;7.10
8227;BMP180;4154;48.810;9.012;2023-04-16T02:05:02;96997.00;;;7.10
8227;BMP180;4154;48.810;9.012;2023-04-16T02:07:28;97005.00;;;7.10
8227;BMP180;4154;48.810;9.012;2023-04-16T02:09:56;97012.00;;;7.20
8227;BMP180;4154;48.810;9.012;2023-04-16T02:12:22;97000.00;;;7.20
8227;BMP180;4154;48.810;9.012;2023-04-16T02:14:48;97000.00;;;7.20
8227;BMP180;4154;48.810;9.012;2023-04-16T02:17:14;97010.00;;;7.10
8227;BMP180;4154;48.810;9.012;2023-04-16T02:19:40;97006.00;;;7.20
8227;BMP180;4154;48.810;9.012;2023-04-16T02:22:06;97011.00;;;7.20
8227;BMP180;4154;48.810;9.012;2023-04-16T02:24:32;97013.00;;;7.10
8227;BMP180;4154;48.810;9.012;2023-04-16T02:26:58;97007.00;;;7.10
8227;BMP180;4154;48.810;9.012;2023-04-16T02:29:24;97000.00;;;7.10
8227;BMP180;4154;48.810;9.012;2023-04-16T02:31:50;97010.00;;;7.10
8227;BMP180;4154;48.810;9.012;2023-04-16T02:34:16;97007.00;;;7.10
8227;BMP180;4154;48.810;9.012;2023-04-16T02:36:42;97009.00;;;7.10
8227;BMP180;4154;48.810;9.012;2023-04-16T02:39:07;97001.00;;;7.10
8227;BMP180;4154;48.810;9.012;2023-04-16T02:41:33;97006.00;;;7.10
8227;BMP180;4154;48.810;9.012;2023-04-16T02:43:59;97006.00;;;7.00
8227;BMP180;4154;48.810;9.012;2023-04-16T02:46:25;97006.00;;;7.00
8227;BMP180;4154;48.810;9.012;2023-04-16T02:48:51;97009.00;;;7.10
8227;BMP180;4154;48.810;9.012;2023-04-16T02:51:17;97011.00;;;7.10
8227;BMP180;4154;48.810;9.012;2023-04-16T02:53:43;97016.00;;;7.00
8227;BMP180;4154;48.810;9.012;2023-04-16T02:56:11;97018.00;;;7.00
8227;BMP180;4154;48.810;9.012;2023-04-16T02:58:37;97015.00;;;7.00
8227;BMP180;4154;48.810;9.012;2023-04-16T03:01:03;97018.00;;;7.00
8227;BMP180;4154;48.810;9.012;2023-04-16T03:03:29;97022.00;;;7.00
8227;BMP180;4154;48.810;9.012;2023-04-16T03:05:55;97014.00;;;6.90
8227;BMP180;4154;48.810;9.012;2023-04-16T03:08:21;97017.00;;;6.90
8227;BMP180;4154;48.810;9.012;2023-04-16T03:10:47;97027.00;;;6.90
8227;BMP180;4154;48.810;9.012;2023-04-16T03:13:12;97034.00;;;7.00
8227;BMP180;4154;48.810;9.012;2023-04-16T03:15:38;97022.00;;;7.10
8227;BMP180;4154;48.810;9.012;2023-04-16T03:18:04;97020.00;;;7.00
8227;BMP180;4154;48.810;9.012;2023-04-16T03:20:30;97026.00;;;7.00
8227;BMP180;4154;48.810;9.012;2023-04-16T03:22:56;97029.00;;;6.90
8227;BMP180;4154;48.810;9.012;2023-04-16T03:25:21;97027.00;;;6.90
8227;BMP180;4154;48.810;9.012;2023-04-16T03:27:47;97037.00;;;6.90
8227;BMP180;4154;48.810;9.012;2023-04-16T03:30:13;97029.00;;;7.00
8227;BMP180;4154;48.810;9.012;2023-04-16T03:32:40;97029.00;;;7.00
8227;BMP180;4154;48.810;9.012;2023-04-16T03:35:07;97030.00;;;7.00
8227;BMP180;4154;48.810;9.012;2023-04-16T03:37:34;97034.00;;;7.00
8227;BMP180;4154;48.810;9.012;2023-04-16T03:40:00;97036.00;;;7.00
8227;BMP180;4154;48.810;9.012;2023-04-16T03:42:27;97046.00;;;7.00
8227;BMP180;4154;48.810;9.012;2023-04-16T03:44:52;97040.00;;;7.10
8227;BMP180;4154;48.810;9.012;2023-04-16T03:47:19;97042.00;;;6.90
8227;BMP180;4154;48.810;9.012;2023-04-16T03:49:45;97044.00;;;6.90
8227;BMP180;4154;48.810;9.012;2023-04-16T03:52:11;97043.00;;;7.00
8227;BMP180;4154;48.810;9.012;2023-04-16T03:54:37;97045.00;;;6.90
8227;BMP180;4154;48.810;9.012;2023-04-16T03:57:03;97043.00;;;6.90
8227;BMP180;4154;48.810;9.012;2023-04-16T03:59:29;97046.00;;;7.00
8227;BMP180;4154;48.810;9.012;2023-04-16T04:01:54;97054.00;;;7.00
8227;BMP180;4154;48.810;9.012;2023-04-16T04:04:22;97041.00;;;6.90
8227;BMP180;4154;48.810;9.012;2023-04-16T04:06:48;97046.00;;;7.00
8227;BMP180;4154;48.810;9.012;2023-04-16T04:09:14;97057.00;;;6.90
8227;BMP180;4154;48.810;9.012;2023-04-16T04:11:41;97032.00;;;6.90
8227;BMP180;4154;48.810;9.012;2023-04-16T04:14:07;97043.00;;;6.90
8227;BMP180;4154;48.810;9.012;2023-04-16T04:16:33;97048.00;;;6.90
8227;BMP180;4154;48.810;9.012;2023-04-16T04:19:00;97056.00;;;6.80
8227;BMP180;4154;48.810;9.012;2023-04-16T04:21:29;97054.00;;;6.90
8227;BMP180;4154;48.810;9.012;2023-04-16T04:23:56;97058.00;;;6.90
8227;BMP180;4154;48.810;9.012;2023-04-16T04:26:22;97060.00;;;6.80
8227;BMP180;4154;48.810;9.012;2023-04-16T04:28:47;97051.00;;;6.80
8227;BMP180;4154;48.810;9.012;2023-04-16T04:31:13;97058.00;;;6.90
8227;BMP180;4154;48.810;9.012;2023-04-16T04:33:39;97058.00;;;6.90
8227;BMP180;4154;48.810;9.012;2023-04-16T04:36:05;97069.00;;;6.90
8227;BMP180;4154;48.810;9.012;2023-04-16T04:38:31;97060.00;;;6.90
8227;BMP180;4154;48.810;9.012;2023-04-16T04:40:58;97057.00;;;6.90
8227;BMP180;4154;48.810;9.012;2023-04-16T04:43:24;97065.00;;;6.70
8227;BMP180;4154;48.810;9.012;2023-04-16T04:45:50;97070.00;;;6.70
8227;BMP180;4154;48.810;9.012;2023-04-16T04:48:16;97076.00;;;6.80
8227;BMP180;4154;48.810;9.012;2023-04-16T04:50:44;97080.00;;;6.80
8227;BMP180;4154;48.810;9.012;2023-04-16T04:53:09;97080.00;;;6.80
8227;BMP180;4154;48.810;9.012;2023-04-16T04:55:39;97074.00;;;6.80
8227;BMP180;4154;48.810;9.012;2023-04-16T04:58:06;97087.00;;;6.90
8227;BMP180;4154;48.810;9.012;2023-04-16T05:00:33;97087.00;;;6.80
8227;BMP180;4154;48.810;9.012;2023-04-16T05:03:04;97088.00;;;6.80
8227;BMP180;4154;48.810;9.012;2023-04-16T05:05:31;97100.00;;;6.80
8227;BMP180;4154;48.810;9.012;2023-04-16T05:07:57;97094.00;;;6.80
8227;BMP180;4154;48.810;9.012;2023-04-16T05:10:23;97097.00;;;6.80
8227;BMP180;4154;48.810;9.012;2023-04-16T05:12:49;97094.00;;;6.80
8227;BMP180;4154;48.810;9.012;2023-04-16T05:15:15;97097.00;;;6.80
8227;BMP180;4154;48.810;9.012;2023-04-16T05:17:41;97103.00;;;6.90
8227;BMP180;4154;48.810;9.012;2023-04-16T05:20:08;97111.00;;;6.90
8227;BMP180;4154;48.810;9.012;2023-04-16T05:22:34;97108.00;;;6.80
8227;BMP180;4154;48.810;9.012;2023-04-16T05:25:00;97126.00;;;6.90
8227;BMP180;4154;48.810;9.012;2023-04-16T05:27:26;97124.00;;;6.80
8227;BMP180;4154;48.810;9.012;2023-04-16T05:29:52;97123.00;;;6.70
8227;BMP180;4154;48.810;9.012;2023-04-16T05:32:18;97120.00;;;6.70
8227;BMP180;4154;48.810;9.012;2023-04-16T05:34:43;97131.00;;;6.80
8227;BMP180;4154;48.810;9.012;2023-04-16T05:37:09;97126.00;;;6.80
8227;BMP180;4154;48.810;9.012;2023-04-16T05:39:34;97126.00;;;6.80
8227;BMP180;4154;48.810;9.012;2023-04-16T05:42:01;97119.00;;;6.80
8227;BMP180;4154;48.810;9.012;2023-04-16T05:44:27;97126.00;;;6.90
8227;BMP180;4154;48.810;9.012;2023-04-16T05:46:52;97128.00;;;6.80
8227;BMP180;4154;48.810;9.012;2023-04-16T05:49:18;97137.00;;;6.80
8227;BMP180;4154;48.810;9.012;2023-04-16T05:51:44;97141.00;;;6.70
8227;BMP180;4154;48.810;9.012;2023-04-16T05:54:10;97147.00;;;6.80
8227;BMP180;4154;48.810;9.012;2023-04-16T05:56:35;97144.00;;;6.80
8227;BMP180;4154;48.810;9.012;2023-04-16T05:59:01;97149.00;;;6.80
8227;BMP180;4154;48.810;9.012;2023-04-16T06:01:27;97145.00;;;6.80
8227;BMP180;4154;48.810;9.012;2023-04-16T06:03:52;97149.00;;;6.70
8227;BMP180;4154;48.810;9.012;2023-04-16T06:06:18;97148.00;;;6.80
8227;BMP180;4154;48.810;9.012;2023-04-16T06:08:44;97146.00;;;6.70
8227;BMP180;4154;48.810;9.012;2023-04-16T06:11:10;97158.00;;;6.80
8227;BMP180;4154;48.810;9.012;2023-04-16T06:13:37;97157.00;;;6.80
8227;BMP180;4154;48.810;9.012;2023-04-16T06:16:03;97156.00;;;6.80
8227;BMP180;4154;48.810;9.012;2023-04-16T06:18:29;97159.00;;;6.90
8227;BMP180;4154;48.810;9.012;2023-04-16T06:20:55;97158.00;;;6.70
8227;BMP180;4154;48.810;9.012;2023-04-16T06:23:23;97154.00;;;6.80
8227;BMP180;4154;48.810;9.012;2023-04-16T06:25:49;97159.00;;;6.80
8227;BMP180;4154;48.810;9.012;2023-04-16T06:28:15;97159.00;;;6.80
8227;BMP180;4154;48.810;9.012;2023-04-16T06:30:41;97156.00;;;6.80
8227;BMP180;4154;48.810;9.012;2023-04-16T06:33:07;97159.00;;;6.80
8227;BMP180;4154;48.810;9.012;2023-04-16T06:35:33;97160.00;;;6.70
8227;BMP180;4154;48.810;9.012;2023-04-16T06:37:58;97165.00;;;6.80
8227;BMP180;4154;48.810;9.012;2023-04-16T06:40:24;97167.00;;;6.80
8227;BMP180;4154;48.810;9.012;2023-04-16T06:42:50;97168.00;;;6.90
8227;BMP180;4154;48.810;9.012;2023-04-16T06:45:16;97168.00;;;6.90
8227;BMP180;4154;48.810;9.012;2023-04-16T06:47:42;97177.00;;;6.90
8227;BMP180;4154;48.810;9.012;2023-04-16T06:50:08;97178.00;;;6.80
8227;BMP180;4154;48.810;9.012;2023-04-16T06:52:34;97179.00;;;6.90
8227;BMP180;4154;48.810;9.012;2023-04-16T06:55:01;97173.00;;;6.90
8227;BMP180;4154;48.810;9.012;2023-04-16T06:57:27;97190.00;;;7.00
8227;BMP180;4154;48.810;9.012;2023-04-16T06:59:53;97180.00;;;6.90
8227;BMP180;4154;48.810;9.012;2023-04-16T07:02:18;97178.00;;;6.90
8227;BMP180;4154;48.810;9.012;2023-04-16T07:04:44;97178.00;;;7.00
8227;BMP180;4154;48.810;9.012;2023-04-16T07:07:10;97181.00;;;7.00
8227;BMP180;4154;48.810;9.012;2023-04-16T07:09:36;97183.00;;;7.10
8227;BMP180;4154;48.810;9.012;2023-04-16T07:12:01;97186.00;;;7.00
8227;BMP180;4154;48.810;9.012;2023-04-16T07:14:27;97183.00;;;7.00
8227;BMP180;4154;48.810;9.012;2023-04-16T07:16:53;97188.00;;;7.00
8227;BMP180;4154;48.810;9.012;2023-04-16T07:19:18;97182.00;;;7.00
8227;BMP180;4154;48.810;9.012;2023-04-16T07:21:45;97185.00;;;7.00
8227;BMP180;4154;48.810;9.012;2023-04-16T07:24:11;97180.00;;;7.00
8227;BMP180;4154;48.810;9.012;2023-04-16T07:26:36;97196.00;;;7.10
8227;BMP180;4154;48.810;9.012;2023-04-16T07:29:02;97194.00;;;7.10
8227;BMP180;4154;48.810;9.012;2023-04-16T07:31:28;97189.00;;;7.10
8227;BMP180;4154;48.810;9.012;2023-04-16T07:33:53;97189.00;;;7.00
8227;BMP180;4154;48.810;9.012;2023-04-16T07:36:20;97189.00;;;7.00
8227;BMP180;4154;48.810;9.012;2023-04-16T07:38:45;97196.00;;;7.10
8227;BMP180;4154;48.810;9.012;2023-04-16T07:41:12;97200.00;;;7.10
8227;BMP180;4154;48.810;9.012;2023-04-16T07:43:38;97198.00;;;7.10
8227;BMP180;4154;48.810;9.012;2023-04-16T07:46:03;97207.00;;;7.20
8227;BMP180;4154;48.810;9.012;2023-04-16T07:48:29;97209.00;;;7.20
8227;BMP180;4154;48.810;9.012;2023-04-16T07:50:54;97209.00;;;7.10
8227;BMP180;4154;48.810;9.012;2023-04-16T07:53:20;97209.00;;;7.20
8227;BMP180;4154;48.810;9.012;2023-04-16T07:55:46;97220.00;;;7.10
8227;BMP180;4154;48.810;9.012;2023-04-16T07:58:11;97217.00;;;7.10
8227;BMP180;4154;48.810;9.012;2023-04-16T08:00:38;97226.00;;;7.20
8227;BMP180;4154;48.810;9.012;2023-04-16T08:03:04;97219.00;;;7.20
8227;BMP180;4154;48.810;9.012;2023-04-16T08:05:29;97218.00;;;7.20
8227;BMP180;4154;48.810;9.012;2023-04-16T08:07:55;97224.00;;;7.10
8227;BMP180;4154;48.810;9.012;2023-04-16T08:10:21;97224.00;;;7.20
8227;BMP180;4154;48.810;9.012;2023-04-16T08:12:46;97229.00;;;7.20
8227;BMP180;4154;48.810;9.012;2023-04-16T08:15:12;97222.00;;;7.30
8227;BMP180;4154;48.810;9.012;2023-04-16T08:17:38;97234.00;;;7.20
8227;BMP180;4154;48.810;9.012;2023-04-16T08:20:05;97233.00;;;7.20
8227;BMP180;4154;48.810;9.012;2023-04-16T08:22:32;97240.00;;;7.20
8227;BMP180;4154;48.810;9.012;2023-04-16T08:24:58;97240.00;;;7.30
8227;BMP180;4154;48.810;9.012;2023-04-16T08:27:23;97238.00;;;7.30
8227;BMP180;4154;48.810;9.012;2023-04-16T08:29:49;97246.00;;;7.30
8227;BMP180;4154;48.810;9.012;2023-04-16T08:32:14;97247.00;;;7.30
8227;BMP180;4154;48.810;9.012;2023-04-16T08:34:41;97258.00;;;7.20
8227;BMP180;4154;48.810;9.012;2023-04-16T08:37:07;97258.00;;;7.30
8227;BMP180;4154;48.810;9.012;2023-04-16T08:39:33;97258.00;;;7.20
8227;BMP180;4154;48.810;9.012;2023-04-16T08:42:04;97256.00;;;7.20
8227;BMP180;4154;48.810;9.012;2023-04-16T08:44:42;97259.00;;;7.30
8227;BMP180;4154;48.810;9.012;2023-04-16T08:47:10;97266.00;;;7.30
8227;BMP180;4154;48.810;9.012;2023-04-16T08:49:43;97267.00;;;7.50
8227;BMP180;4154;48.810;9.012;2023-04-16T08:52:17;97259.00;;;7.50
8227;BMP180;4154;48.810;9.012;2023-04-16T08:55:03;97269.00;;;7.60
8227;BMP180;4154;48.810;9.012;2023-04-16T08:57:49;97276.00;;;7.60
8227;BMP180;4154;48.810;9.012;2023-04-16T09:00:18;97269.00;;;7.60
8227;BMP180;4154;48.810;9.012;2023-04-16T09:02:44;97258.00;;;7.50
8227;BMP180;4154;48.810;9.012;2023-04-16T09:05:14;97273.00;;;7.50
8227;BMP180;4154;48.810;9.012;2023-04-16T09:07:46;97276.00;;;7.60
8227;BMP180;4154;48.810;9.012;2023-04-16T09:10:14;97283.00;;;7.60
8227;BMP180;4154;48.810;9.012;2023-04-16T09:12:41;97275.00;;;7.50
8227;BMP180;4154;48.810;9.012;2023-04-16T09:15:10;97286.00;;;7.60
8227;BMP180;4154;48.810;9.012;2023-04-16T09:17:36;97283.00;;;7.70
8227;BMP180;4154;48.810;9.012;2023-04-16T09:20:05;97280.00;;;7.60
8227;BMP180;4154;48.810;9.012;2023-04-16T09:22:34;97282.00;;;7.60
8227;BMP180;4154;48.810;9.012;2023-04-16T09:25:00;97291.00;;;7.70
8227;BMP180;4154;48.810;9.012;2023-04-16T09:27:26;97286.00;;;7.70
8227;BMP180;4154;48.810;9.012;2023-04-16T09:29:51;97288.00;;;7.70
8227;BMP180;4154;48.810;9.012;2023-04-16T09:32:27;97286.00;;;7.60
8227;BMP180;4154;48.810;9.012;2023-04-16T09:35:00;97290.00;;;7.70
8227;BMP180;4154;48.810;9.012;2023-04-16T09:37:29;97282.00;;;7.70
8227;BMP180;4154;48.810;9.012;2023-04-16T09:39:58;97292.00;;;7.70
8227;BMP180;4154;48.810;9.012;2023-04-16T09:42:32;97298.00;;;7.80
8227;BMP180;4154;48.810;9.012;2023-04-16T09:44:59;97299.00;;;7.80
8227;BMP180;4154;48.810;9.012;2023-04-16T09:47:37;97292.00;;;7.70
8227;BMP180;4154;48.810;9.012;2023-04-16T09:50:06;97307.00;;;7.80
8227;BMP180;4154;48.810;9.012;2023-04-16T09:52:36;97306.00;;;7.80
8227;BMP180;4154;48.810;9.012;2023-04-16T09:55:05;97317.00;;;7.80
8227;BMP180;4154;48.810;9.012;2023-04-16T09:57:31;97303.00;;;7.80
8227;BMP180;4154;48.810;9.012;2023-04-16T10:00:06;97313.00;;;7.70
8227;BMP180;4154;48.810;9.012;2023-04-16T10:02:34;97316.00;;;7.70
8227;BMP180;4154;48.810;9.012;2023-04-16T10:05:06;97312.00;;;7.80
8227;BMP180;4154;48.810;9.012;2023-04-16T10:07:35;97311.00;;;7.80
8227;BMP180;4154;48.810;9.012;2023-04-16T10:10:03;97318.00;;;7.80
8227;BMP180;4154;48.810;9.012;2023-04-16T10:12:29;97317.00;;;7.90
8227;BMP180;4154;48.810;9.012;2023-04-16T10:14:57;97323.00;;;7.80
8227;BMP180;4154;48.810;9.012;2023-04-16T10:17:29;97323.00;;;7.80
8227;BMP180;4154;48.810;9.012;2023-04-16T10:19:57;97318.00;;;7.70
8227;BMP180;4154;48.810;9.012;2023-04-16T10:22:24;97328.00;;;7.80
8227;BMP180;4154;48.810;9.012;2023-04-16T10:24:50;97322.00;;;7.80
8227;BMP180;4154;48.810;9.012;2023-04-16T10:27:18;97331.00;;;7.70
8227;BMP180;4154;48.810;9.012;2023-04-16T10:29:44;97329.00;;;7.70
8227;BMP180;4154;48.810;9.012;2023-04-16T10:32:10;97330.00;;;7.80
8227;BMP180;4154;48.810;9.012;2023-04-16T10:34:37;97333.00;;;7.80
8227;BMP180;4154;48.810;9.012;2023-04-16T10:37:03;97339.00;;;7.90
8227;BMP180;4154;48.810;9.012;2023-04-16T10:39:29;97337.00;;;7.80
8227;BMP180;4154;48.810;9.012;2023-04-16T10:42:15;97341.00;;;7.90
8227;BMP180;4154;48.810;9.012;2023-04-16T10:44:41;97342.00;;;7.80
8227;BMP180;4154;48.810;9.012;2023-04-16T10:47:12;97330.00;;;7.80
8227;BMP180;4154;48.810;9.012;2023-04-16T10:49:39;97340.00;;;7.90
8227;BMP180;4154;48.810;9.012;2023-04-16T10:52:13;97336.00;;;8.00
8227;BMP180;4154;48.810;9.012;2023-04-16T10:54:41;97327.00;;;7.90
8227;BMP180;4154;48.810;9.012;2023-04-16T10:57:13;97341.00;;;7.90
8227;BMP180;4154;48.810;9.012;2023-04-16T10:59:42;97331.00;;;7.90
8227;BMP180;4154;48.810;9.012;2023-04-16T11:02:14;97331.00;;;7.90
8227;BMP180;4154;48.810;9.012;2023-04-16T11:04:44;97324.00;;;8.00
8227;BMP180;4154;48.810;9.012;2023-04-16T11:07:19;97331.00;;;8.00
8227;BMP180;4154;48.810;9.012;2023-04-16T11:09:57;97327.00;;;8.10
8227;BMP180;4154;48.810;9.012;2023-04-16T11:12:44;97319.00;;;8.10
8227;BMP180;4154;48.810;9.012;2023-04-16T11:15:14;97331.00;;;8.10
8227;BMP180;4154;48.810;9.012;2023-04-16T11:17:50;97328.00;;;8.10
8227;BMP180;4154;48.810;9.012;2023-04-16T11:20:21;97339.00;;;8.20
8227;BMP180;4154;48.810;9.012;2023-04-16T11:22:48;97337.00;;;8.30
8227;BMP180;4154;48.810;9.012;2023-04-16T11:25:29;97339.00;;;8.30
8227;BMP180;4154;48.810;9.012;2023-04-16T11:27:56;97336.00;;;8.10
8227;BMP180;4154;48.810;9.012;2023-04-16T11:30:38;97335.00;;;8.20
8227;BMP180;4154;48.810;9.012;2023-04-16T11:33:10;97338.00;;;8.20
8227;BMP180;4154;48.810;9.012;2023-04-16T11:35:37;97342.00;;;8.30
8227;BMP180;4154;48.810;9.012;2023-04-16T11:38:04;97343.00;;;8.40
8227;BMP180;4154;48.810;9.012;2023-04-16T11:40:33;97339.00;;;8.30
8227;BMP180;4154;48.810;9.012;2023-04-16T11:43:14;97340.00;;;8.30
8227;BMP180;4154;48.810;9.012;2023-04-16T11:45:59;97339.00;;;8.30
8227;BMP180;4154;48.810;9.012;2023-04-16T11:48:44;97337.00;;;8.20
8227;BMP180;4154;48.810;9.012;2023-04-16T11:51:11;97337.00;;;8.10
8227;BMP180;4154;48.810;9.012;2023-04-16T11:53:53;97337.00;;;8.20
8227;BMP180;4154;48.810;9.012;2023-04-16T11:56:31;97342.00;;;8.20
8227;BMP180;4154;48.810;9.012;2023-04-16T12:01:40;97347.00;;;8.30
8227;BMP180;4154;48.810;9.012;2023-04-16T12:04:06;97357.00;;;8.30
8227;BMP180;4154;48.810;9.012;2023-04-16T12:06:33;97357.00;;;8.30
8227;BMP180;4154;48.810;9.012;2023-04-16T12:09:25;97350.00;;;8.30
8227;BMP180;4154;48.810;9.012;2023-04-16T12:11:52;97354.00;;;8.20
8227;BMP180;4154;48.810;9.012;2023-04-16T12:14:18;97352.00;;;8.20
8227;BMP180;4154;48.810;9.012;2023-04-16T12:16:44;97353.00;;;8.20
8227;BMP180;4154;48.810;9.012;2023-04-16T12:19:12;97348.00;;;8.30
8227;BMP180;4154;48.810;9.012;2023-04-16T12:21:41;97350.00;;;8.20
8227;BMP180;4154;48.810;9.012;2023-04-16T12:24:10;97354.00;;;8.20
8227;BMP180;4154;48.810;9.012;2023-04-16T12:26:42;97358.00;;;8.20
8227;BMP180;4154;48.810;9.012;2023-04-16T12:29:22;97360.00;;;8.30
8227;BMP180;4154;48.810;9.012;2023-04-16T12:31:49;97355.00;;;8.30
8227;BMP180;4154;48.810;9.012;2023-04-16T12:34:16;97354.00;;;8.30
8227;BMP180;4154;48.810;9.012;2023-04-16T12:36:44;97356.00;;;8.20
8227;BMP180;4154;48.810;9.012;2023-04-16T12:39:12;97358.00;;;8.20
8227;BMP180;4154;48.810;9.012;2023-04-16T12:41:40;97368.00;;;8.20
8227;BMP180;4154;48.810;9.012;2023-04-16T12:44:10;97361.00;;;8.20
8227;BMP180;4154;48.810;9.012;2023-04-16T12:46:41;97365.00;;;8.20
8227;BMP180;4154;48.810;9.012;2023-04-16T12:49:09;97370.00;;;8.20
8227;BMP180;4154;48.810;9.012;2023-04-16T12:51:37;97367.00;;;8.20
8227;BMP180;4154;48.810;9.012;2023-04-16T12:54:05;97369.00;;;8.20
8227;BMP180;4154;48.810;9.012;2023-04-16T12:56:34;97380.00;;;8.20
8227;BMP180;4154;48.810;9.012;2023-04-16T12:59:01;97372.00;;;8.20
8227;BMP180;4154;48.810;9.012;2023-04-16T13:01:27;97369.00;;;8.20
8227;BMP180;4154;48.810;9.012;2023-04-16T13:03:53;97362.00;;;8.20
8227;BMP180;4154;48.810;9.012;2023-04-16T13:06:20;97368.00;;;8.20
8227;BMP180;4154;48.810;9.012;2023-04-16T13:08:46;97367.00;;;8.30
8227;BMP180;4154;48.810;9.012;2023-04-16T13:11:12;97363.00;;;8.20
8227;BMP180;4154;48.810;9.012;2023-04-16T13:13:38;97362.00;;;8.30
8227;BMP180;4154;48.810;9.012;2023-04-16T13:16:04;97364.00;;;8.30
8227;BMP180;4154;48.810;9.012;2023-04-16T13:18:31;97369.00;;;8.20
8227;BMP180;4154;48.810;9.012;2023-04-16T13:20:58;97354.00;;;8.30
8227;BMP180;4154;48.810;9.012;2023-04-16T13:23:24;97367.00;;;8.40
8227;BMP180;4154;48.810;9.012;2023-04-16T13:25:50;97361.00;;;8.30
8227;BMP180;4154;48.810;9.012;2023-04-16T13:28:16;97360.00;;;8.20
8227;BMP180;4154;48.810;9.012;2023-04-16T13:30:42;97371.00;;;8.20
8227;BMP180;4154;48.810;9.012;2023-04-16T13:33:09;97359.00;;;8.30
8227;BMP180;4154;48.810;9.012;2023-04-16T13:35:35;97367.00;;;8.30
8227;BMP180;4154;48.810;9.012;2023-04-16T13:38:01;97362.00;;;8.30
8227;BMP180;4154;48.810;9.012;2023-04-16T13:40:27;97359.00;;;8.30
8227;BMP180;4154;48.810;9.012;2023-04-16T13:42:53;97372.00;;;8.30
8227;BMP180;4154;48.810;9.012;2023-04-16T13:45:19;97380.00;;;8.40
8227;BMP180;4154;48.810;9.012;2023-04-16T13:47:45;97369.00;;;8.40
8227;BMP180;4154;48.810;9.012;2023-04-16T13:50:11;97370.00;;;8.30
8227;BMP180;4154;48.810;9.012;2023-04-16T13:52:37;97373.00;;;8.40
8227;BMP180;4154;48.810;9.012;2023-04-16T13:55:04;97371.00;;;8.40
8227;BMP180;4154;48.810;9.012;2023-04-16T13:57:30;97367.00;;;8.40
8227;BMP180;4154;48.810;9.012;2023-04-16T13:59:56;97368.00;;;8.40
8227;BMP180;4154;48.810;9.012;2023-04-16T14:02:22;97371.00;;;8.40
8227;BMP180;4154;48.810;9.012;2023-04-16T14:04:48;97360.00;;;8.40
8227;BMP180;4154;48.810;9.012;2023-04-16T14:07:14;97365.00;;;8.50
8227;BMP180;4154;48.810;9.012;2023-04-16T14:09:40;97371.00;;;8.40
8227;BMP180;4154;48.810;9.012;2023-04-16T14:12:06;97368.00;;;8.40
8227;BMP180;4154;48.810;9.012;2023-04-16T14:14:32;97359.00;;;8.40
8227;BMP180;4154;48.810;9.012;2023-04-16T14:16:58;97365.00;;;8.40
8227;BMP180;4154;48.810;9.012;2023-04-16T14:19:24;97366.00;;;8.40
8227;BMP180;4154;48.810;9.012;2023-04-16T14:21:50;97360.00;;;8.30
8227;BMP180;4154;48.810;9.012;2023-04-16T14:24:16;97359.00;;;8.40
8227;BMP180;4154;48.810;9.012;2023-04-16T14:26:43;97365.00;;;8.40
8227;BMP180;4154;48.810;9.012;2023-04-16T14:29:08;97370.00;;;8.40
8227;BMP180;4154;48.810;9.012;2023-04-16T14:31:35;97367.00;;;8.20
8227;BMP180;4154;48.810;9.012;2023-04-16T14:34:01;97358.00;;;8.20
8227;BMP180;4154;48.810;9.012;2023-04-16T14:36:28;97359.00;;;8.20
8227;BMP180;4154;48.810;9.012;2023-04-16T14:38:54;97371.00;;;8.20
8227;BMP180;4154;48.810;9.012;2023-04-16T14:41:20;97360.00;;;8.30
8227;BMP180;4154;48.810;9.012;2023-04-16T14:43:46;97370.00;;;8.20
8227;BMP180;4154;48.810;9.012;2023-04-16T14:46:12;97373.00;;;8.30
8227;BMP180;4154;48.810;9.012;2023-04-16T14:48:42;97365.00;;;8.20
8227;BMP180;4154;48.810;9.012;2023-04-16T14:51:08;97372.00;;;8.20